Iowa City, IA (52240)

11:10 AM CST on January 19, 2017 (GMT -0600)
NE Iowa City | | Change Station

Elev 755 ft 41.71 °N, 91.48 °W | Updated 15 seconds ago

Overcast
Overcast
41.5 °F
Feels Like 42 °F
N
0.0
Wind Variable Wind from ENE

Today
High -- | Low -- °F
--% Chance of Precip.
Yesterday
High -- | Low -- °F
Precip. -- in
Pressure 29.89 in
Visibility 6.0 miles
Clouds Few 800 ft
Overcast 3000 ft
Windchill 42 °F
Dew Point 39 °F
Humidity 93%
Rainfall 0.00 in
Snow Depth Not available.
7:28 AM 5:05 PM
Waning Gibbous, 52% visible
SPECI KIOW 191659Z AUTO 07004KT 6SM BR FEW008 OVC030 04/02 A2989 RMK AO2 T00390017
Pressure 29.89 in
Visibility 6.0 miles
Clouds Few 800 ft
Overcast 3000 ft
Windchill 42 °F
Dew Point 39 °F
Humidity 93%
Rainfall 0.00 in
Snow Depth Not available.
7:28 AM 5:05 PM
Waning Gibbous, 52% visible
SPECI KIOW 191659Z AUTO 07004KT 6SM BR FEW008 OVC030 04/02 A2989 RMK AO2 T00390017

Get Your Daily Forecast Email!

Thanks for signing up!

Be on the lookout for a verification email in your inbox.

You'll start receiving the daily forecast at 8 AM.

×

10-Day Weather Forecast

Almanac

Astronomy

Jan. 19, 2017 Rise Set
Actual Time
Civil Twilight
Nautical Twilight
Astronomical Twilight
Moon
Length of Visible Light
Length of Day
Tomorrow will be .
, % of the Moon is Illuminated

Today's Extremes

State Highs State Lows

Community

WunderPhotos

Upload Photos

1,962,540 photos uploaded!

WunderBlog® & News

Nearby

Air Quality

  Air Quality AQ Index Pollutant
Not available.

Snow Depth

Station Depth Elevation

Earthquake Activity

City Distance Mag. Time & Date
Minimum magnitude displayed is 2.5.

Coastal Water Temperatures

Place Temperature

Stations

Nearby Weather Stations

Station Location Temp. Windchill Dew Point Humidity Wind Precip. Elev Updated Type
                   

Watches & Warnings

There are currently no watches in effect.